| time (UTC) | temp C | wind direction | speed KPH | gust KPH | rain 1hr cm | rain 24hr cm | rain mn cm | humidity % | barometer mb |
| 20260508033503 | 9 | 61 | 1.6 | 4.8 | 0.00 | 0.05 | 0.05 | 60 | 1013.7 |
| 20260508033003 | 10 | 50 | 1.6 | 6.4 | 0.00 | 0.05 | 0.05 | 60 | 1013.7 |
| 20260508032503 | 10 | 46 | 1.6 | 6.4 | 0.00 | 0.05 | 0.05 | 59 | 1013.4 |
| 20260508032003 | 10 | 52 | 3.2 | 9.7 | 0.00 | 0.05 | 0.05 | 58 | 1013.7 |
| 20260508031503 | 11 | 45 | 3.2 | 9.7 | 0.00 | 0.05 | 0.05 | 57 | 1013.8 |
| 20260508031003 | 11 | 43 | 4.8 | 12.9 | 0.00 | 0.05 | 0.05 | 57 | 1013.5 |
| 20260508030503 | 11 | 33 | 8.0 | 14.5 | 0.00 | 0.05 | 0.05 | 55 | 1013.5 |
| 20260508030004 | 12 | 33 | 9.7 | 17.7 | 0.00 | 0.05 | 0.05 | 53 | 1013.2 |
| 20260508025503 | 12 | 36 | 9.7 | 17.7 | 0.00 | 0.05 | 0.05 | 53 | 1013.4 |
| 20260508025003 | 12 | 36 | 8.0 | 17.7 | 0.00 | 0.05 | 0.05 | 53 | 1013.5 |
| 20260508024503 | 12 | 43 | 8.0 | 16.1 | 0.00 | 0.05 | 0.05 | 53 | 1013.4 |
| 20260508024003 | 12 | 26 | 9.7 | 16.1 | 0.00 | 0.05 | 0.05 | 52 | 1013.3 |
| 20260508023503 | 12 | 29 | 8.0 | 16.1 | 0.00 | 0.05 | 0.05 | 51 | 1013.2 |
| 20260508023024 | 12 | 24 | 8.0 | 16.1 | 0.00 | 0.05 | 0.05 | 52 | 1013.3 |
| 20260508022503 | 13 | 48 | 9.7 | 22.5 | 0.00 | 0.05 | 0.05 | 52 | 1013.4 |
| 20260508022003 | 13 | 33 | 11.3 | 22.5 | 0.00 | 0.05 | 0.05 | 52 | 1013.2 |
| 20260508021503 | 13 | 30 | 11.3 | 22.5 | 0.00 | 0.05 | 0.05 | 48 | 1013.0 |
| 20260508021003 | 13 | 15 | 11.3 | 22.5 | 0.00 | 0.05 | 0.05 | 48 | 1012.8 |
| 20260508020503 | 13 | 26 | 9.7 | 20.9 | 0.05 | 0.05 | 0.05 | 48 | 1012.8 |
| 20260508020003 | 13 | 20 | 11.3 | 22.5 | 0.05 | 0.05 | 0.05 | 49 | 1012.9 |
| 20260508015524 | 13 | 11 | 11.3 | 25.7 | 0.05 | 0.05 | 0.05 | 49 | 1012.9 |
| 20260508015024 | 14 | 5 | 11.3 | 25.7 | 0.05 | 0.05 | 0.05 | 48 | 1013.0 |
| 20260508014504 | 14 | 4 | 9.7 | 22.5 | 0.05 | 0.05 | 0.05 | 47 | 1012.8 |
| 20260508014003 | 15 | 19 | 4.8 | 17.7 | 0.05 | 0.05 | 0.05 | 48 | 1012.9 |
| 20260508013503 | 16 | 12 | 0.0 | 4.8 | 0.05 | 0.05 | 0.05 | 50 | 1012.5 |
| 20260508013003 | 16 | 22 | 0.0 | 3.2 | 0.05 | 0.05 | 0.05 | 48 | 1012.5 |
| 20260508012503 | 16 | 65 | 0.0 | 3.2 | 0.05 | 0.05 | 0.05 | 58 | 1012.5 |
| 20260508012003 | 15 | 67 | 0.0 | 3.2 | 0.05 | 0.05 | 0.05 | 58 | 1012.5 |
| 20260508011503 | 14 | 71 | 1.6 | 6.4 | 0.05 | 0.05 | 0.05 | 58 | 1012.5 |
| 20260508011003 | 14 | 181 | 3.2 | 6.4 | 0.05 | 0.05 | 0.05 | 52 | 1012.6 |
| 20260508010503 | 16 | 208 | 3.2 | 11.3 | 0.00 | 0.00 | 0.00 | 60 | 1013.0 |
| 20260508010003 | 17 | 352 | 3.2 | 11.3 | 0.00 | 0.00 | 0.00 | 47 | 1012.6 |
| 20260508005503 | 17 | 14 | 3.2 | 11.3 | 0.00 | 0.00 | 0.00 | 40 | 1012.4 |
| 20260508005003 | 17 | 35 | 3.2 | 9.7 | 0.00 | 0.00 | 0.00 | 39 | 1012.1 |
| 20260508004524 | 17 | 33 | 3.2 | 11.3 | 0.00 | 0.00 | 0.00 | 38 | 1012.1 |
| 20260508004004 | 18 | 6 | 4.8 | 11.3 | 0.00 | 0.00 | 0.00 | 37 | 1012.1 |
| 20260508003524 | 18 | 348 | 4.8 | 11.3 | 0.00 | 0.00 | 0.00 | 37 | 1012.2 |
| 20260508003024 | 18 | 6 | 4.8 | 11.3 | 0.00 | 0.00 | 0.00 | 37 | 1011.9 |
| 20260508002503 | 18 | 24 | 1.6 | 9.7 | 0.00 | 0.00 | 0.00 | 36 | 1012.2 |
| 20260508002003 | 20 | 12 | 1.6 | 9.7 | 0.00 | 0.00 | 0.00 | 35 | 1012.2 |
| 20260508001503 | 20 | 34 | 1.6 | 9.7 | 0.00 | 0.00 | 0.00 | 35 | 1012.4 |
| 20260508001003 | 20 | 49 | 0.0 | 6.4 | 0.00 | 0.00 | 0.00 | 33 | 1012.4 |
| 20260508000503 | 19 | 31 | 0.0 | 6.4 | 0.00 | 0.00 | 0.00 | 36 | 1012.1 |
| 20260508000003 | 19 | 67 | 0.0 | 3.2 | 0.00 | 0.00 | 0.00 | 35 | 1012.2 |
| 20260507235503 | 19 | 25 | 0.0 | 4.8 | 0.00 | 0.00 | 0.00 | 36 | 1012.2 |
| 20260507235003 | 18 | 27 | 0.0 | 9.7 | 0.00 | 0.00 | 0.00 | 37 | 1012.4 |
| 20260507234503 | 19 | 18 | 1.6 | 9.7 | 0.00 | 0.00 | 0.00 | 35 | 1012.4 |
| 20260507234024 | 20 | 322 | 1.6 | 6.4 | 0.00 | 0.00 | 0.00 | 35 | 1012.4 |
| 20260507233503 | 20 | 24 | 1.6 | 9.7 | 0.00 | 0.00 | 0.00 | 35 | 1012.4 |
| 20260507233003 | 20 | 51 | 1.6 | 9.7 | 0.00 | 0.00 | 0.00 | 38 | 1012.2 |
| 20260507232503 | 20 | 351 | 3.2 | 12.9 | 0.00 | 0.00 | 0.00 | 39 | 1012.5 |
| 20260507232003 | 20 | 267 | 6.4 | 12.9 | 0.00 | 0.00 | 0.00 | 38 | 1012.4 |
| 20260507231503 | 20 | 269 | 6.4 | 12.9 | 0.00 | 0.00 | 0.00 | 38 | 1012.4 |
| 20260507231003 | 20 | 282 | 4.8 | 12.9 | 0.00 | 0.00 | 0.00 | 40 | 1012.5 |
| 20260507230524 | 20 | 316 | 1.6 | 12.9 | 0.00 | 0.00 | 0.00 | 40 | 1012.6 |
| 20260507230003 | 19 | 24 | 0.0 | 4.8 | 0.00 | 0.00 | 0.00 | 36 | 1012.5 |
| 20260507225503 | 18 | 278 | 0.0 | 9.7 | 0.00 | 0.00 | 0.00 | 37 | 1012.5 |
| 20260507225024 | 17 | 347 | 3.2 | 14.5 | 0.00 | 0.00 | 0.00 | 44 | 1012.6 |
| 20260507224525 | 16 | 327 | 8.0 | 14.5 | 0.00 | 0.00 | 0.00 | 44 | 1012.6 |
| 20260507224004 | 15 | 274 | 8.0 | 14.5 | 0.00 | 0.00 | 0.00 | 52 | 1012.4 |
| 20260507223504 | 14 | 281 | 8.0 | 12.9 | 0.00 | 0.00 | 0.00 | 61 | 1012.7 |
| 20260507223025 | 15 | 304 | 8.0 | 14.5 | 0.00 | 0.00 | 0.00 | 57 | 1012.7 |
| 20260507222504 | 15 | 280 | 8.0 | 14.5 | 0.00 | 0.00 | 0.00 | 54 | 1012.4 |
| 20260507222004 | 17 | 316 | 8.0 | 16.1 | 0.00 | 0.00 | 0.00 | 46 | 1012.7 |
| 20260507221504 | 18 | 286 | 9.7 | 16.1 | 0.00 | 0.00 | 0.00 | 39 | 1012.7 |
| 20260507221025 | 18 | 265 | 12.9 | 17.7 | 0.00 | 0.00 | 0.00 | 37 | 1012.4 |
| 20260507220525 | 18 | 278 | 14.5 | 20.9 | 0.00 | 0.00 | 0.00 | 36 | 1012.5 |
| 20260507220004 | 19 | 264 | 11.3 | 20.9 | 0.00 | 0.00 | 0.00 | 36 | 1012.4 |
| 20260507215525 | 20 | 270 | 8.0 | 17.7 | 0.00 | 0.00 | 0.00 | 34 | 1012.5 |
| 20260507215004 | 20 | 160 | 6.4 | 12.9 | 0.00 | 0.00 | 0.00 | 32 | 1012.4 |
| 20260507214504 | 21 | 241 | 4.8 | 11.3 | 0.00 | 0.00 | 0.00 | 29 | 1012.2 |
| 20260507214004 | 21 | 206 | 3.2 | 12.9 | 0.00 | 0.00 | 0.00 | 31 | 1012.5 |
| 20260507213504 | 21 | 168 | 3.2 | 12.9 | 0.00 | 0.00 | 0.00 | 29 | 1012.1 |
| 20260507213004 | 22 | 240 | 4.8 | 12.9 | 0.00 | 0.00 | 0.00 | 29 | 1012.4 |
| 20260507212525 | 22 | 358 | 3.2 | 11.3 | 0.00 | 0.00 | 0.00 | 29 | 1012.5 |
| 20260507212025 | 22 | 255 | 3.2 | 11.3 | 0.00 | 0.00 | 0.00 | 28 | 1012.4 |
| 20260507211525 | 22 | 77 | 1.6 | 11.3 | 0.00 | 0.00 | 0.00 | 31 | 1012.5 |
| 20260507211004 | 22 | 92 | 3.2 | 11.3 | 0.00 | 0.00 | 0.00 | 32 | 1012.8 |
| 20260507210504 | 21 | 42 | 4.8 | 11.3 | 0.00 | 0.00 | 0.00 | 35 | 1012.5 |
| 20260507210005 | 21 | 27 | 1.6 | 9.7 | 0.00 | 0.00 | 0.00 | 33 | 1012.7 |
| 20260507205504 | 21 | 63 | 1.6 | 9.7 | 0.00 | 0.00 | 0.00 | 33 | 1012.8 |
| 20260507205025 | 21 | 115 | 3.2 | 9.7 | 0.00 | 0.00 | 0.00 | 32 | 1012.9 |
| 20260507204504 | 21 | 109 | 3.2 | 6.4 | 0.00 | 0.00 | 0.00 | 33 | 1012.8 |
| 20260507204004 | 20 | 250 | 1.6 | 6.4 | 0.00 | 0.00 | 0.00 | 34 | 1012.9 |
| 20260507203504 | 20 | 49 | 1.6 | 9.7 | 0.00 | 0.00 | 0.00 | 36 | 1012.8 |
| 20260507203004 | 20 | 264 | 1.6 | 9.7 | 0.00 | 0.00 | 0.00 | 33 | 1013.2 |
| 20260507202504 | 20 | 193 | 1.6 | 9.7 | 0.00 | 0.00 | 0.00 | 35 | 1013.2 |
| 20260507202004 | 20 | 43 | 3.2 | 9.7 | 0.00 | 0.00 | 0.00 | 36 | 1012.8 |
| 20260507201504 | 20 | 296 | 3.2 | 9.7 | 0.00 | 0.00 | 0.00 | 36 | 1013.0 |
| 20260507201004 | 20 | 78 | 1.6 | 9.7 | 0.00 | 0.00 | 0.00 | 38 | 1012.9 |
| 20260507200525 | 19 | 185 | 3.2 | 9.7 | 0.00 | 0.00 | 0.00 | 37 | 1013.2 |
| 20260507200025 | 20 | 106 | 3.2 | 11.3 | 0.00 | 0.00 | 0.00 | 40 | 1013.0 |
| 20260507195504 | 19 | 138 | 3.2 | 11.3 | 0.00 | 0.00 | 0.00 | 42 | 1013.0 |
| 20260507195025 | 19 | 277 | 3.2 | 11.3 | 0.00 | 0.00 | 0.00 | 39 | 1012.9 |
| 20260507194504 | 19 | 233 | 3.2 | 11.3 | 0.00 | 0.00 | 0.00 | 42 | 1012.9 |
| 20260507194004 | 19 | 248 | 3.2 | 9.7 | 0.00 | 0.00 | 0.00 | 39 | 1012.8 |
| 20260507193504 | 19 | 161 | 4.8 | 11.3 | 0.00 | 0.00 | 0.00 | 41 | 1013.3 |
| 20260507193025 | 19 | 247 | 4.8 | 12.9 | 0.00 | 0.00 | 0.00 | 41 | 1013.0 |
| 20260507192504 | 18 | 239 | 4.8 | 12.9 | 0.00 | 0.00 | 0.00 | 43 | 1013.2 |
| 20260507192004 | 18 | 261 | 6.4 | 14.5 | 0.00 | 0.00 | 0.00 | 41 | 1013.2 |
| 20260507191525 | 18 | 229 | 4.8 | 14.5 | 0.00 | 0.00 | 0.00 | 44 | 1013.2 |
| 20260507191004 | 18 | 224 | 4.8 | 11.3 | 0.00 | 0.00 | 0.00 | 43 | 1013.0 |
| 20260507190525 | 18 | 203 | 3.2 | 12.9 | 0.00 | 0.00 | 0.00 | 42 | 1013.2 |
| 20260507190005 | 18 | 244 | 3.2 | 12.9 | 0.00 | 0.00 | 0.00 | 42 | 1013.3 |
| 20260507185504 | 18 | 254 | 3.2 | 12.9 | 0.00 | 0.00 | 0.00 | 43 | 1013.6 |
| 20260507185025 | 18 | 229 | 3.2 | 12.9 | 0.00 | 0.00 | 0.00 | 43 | 1013.5 |
| 20260507184525 | 17 | 191 | 1.6 | 6.4 | 0.00 | 0.00 | 0.00 | 45 | 1013.3 |
| 20260507184004 | 17 | 148 | 1.6 | 4.8 | 0.00 | 0.00 | 0.00 | 44 | 1013.4 |
| 20260507183504 | 17 | 17 | 1.6 | 6.4 | 0.00 | 0.00 | 0.00 | 40 | 1013.5 |
| 20260507183004 | 18 | 159 | 1.6 | 6.4 | 0.00 | 0.00 | 0.00 | 39 | 1013.6 |
| 20260507182504 | 18 | 183 | 1.6 | 6.4 | 0.00 | 0.00 | 0.00 | 40 | 1013.4 |
| 20260507182025 | 17 | 267 | 3.2 | 9.7 | 0.00 | 0.00 | 0.00 | 41 | 1013.6 |
| 20260507181504 | 17 | 246 | 1.6 | 9.7 | 0.00 | 0.00 | 0.00 | 40 | 1013.5 |
| 20260507181004 | 17 | 214 | 0.0 | 6.4 | 0.00 | 0.00 | 0.00 | 40 | 1013.9 |
| 20260507180504 | 17 | 164 | 1.6 | 9.7 | 0.00 | 0.00 | 0.00 | 38 | 1013.9 |
| 20260507180004 | 17 | 163 | 1.6 | 9.7 | 0.00 | 0.00 | 0.00 | 40 | 1013.9 |
| 20260507175504 | 17 | 348 | 3.2 | 9.7 | 0.00 | 0.00 | 0.00 | 42 | 1013.9 |
| 20260507175004 | 17 | 272 | 4.8 | 11.3 | 0.00 | 0.00 | 0.00 | 44 | 1014.1 |
| 20260507174504 | 16 | 200 | 4.8 | 11.3 | 0.00 | 0.00 | 0.00 | 45 | 1014.2 |
| 20260507174004 | 15 | 286 | 4.8 | 11.3 | 0.00 | 0.00 | 0.00 | 48 | 1014.2 |
| 20260507173504 | 15 | 244 | 4.8 | 11.3 | 0.00 | 0.00 | 0.00 | 46 | 1013.9 |
| 20260507173004 | 15 | 243 | 4.8 | 12.9 | 0.00 | 0.00 | 0.00 | 47 | 1014.3 |
| 20260507172504 | 15 | 255 | 6.4 | 12.9 | 0.00 | 0.00 | 0.00 | 45 | 1014.1 |
| 20260507172004 | 15 | 276 | 4.8 | 11.3 | 0.00 | 0.00 | 0.00 | 48 | 1014.2 |
| 20260507171504 | 15 | 268 | 4.8 | 11.3 | 0.00 | 0.00 | 0.00 | 47 | 1014.1 |
| 20260507171025 | 15 | 165 | 3.2 | 9.7 | 0.00 | 0.00 | 0.00 | 46 | 1014.1 |
| 20260507170525 | 15 | 244 | 3.2 | 9.7 | 0.00 | 0.00 | 0.00 | 46 | 1014.1 |
| 20260507170004 | 15 | 212 | 4.8 | 6.4 | 0.00 | 0.00 | 0.00 | 45 | 1014.4 |
| 20260507165504 | 15 | 243 | 4.8 | 9.7 | 0.00 | 0.00 | 0.00 | 45 | 1014.3 |
| 20260507165004 | 14 | 258 | 4.8 | 9.7 | 0.00 | 0.00 | 0.00 | 45 | 1014.3 |
| 20260507164504 | 14 | 274 | 3.2 | 9.7 | 0.00 | 0.00 | 0.00 | 50 | 1014.3 |
| 20260507164025 | 13 | 9 | 3.2 | 4.8 | 0.00 | 0.00 | 0.00 | 49 | 1014.4 |
| 20260507163504 | 13 | 292 | 3.2 | 6.4 | 0.00 | 0.00 | 0.00 | 47 | 1014.6 |
| 20260507163025 | 13 | 19 | 3.2 | 9.7 | 0.00 | 0.00 | 0.00 | 46 | 1014.4 |
| 20260507162504 | 14 | 351 | 3.2 | 9.7 | 0.00 | 0.00 | 0.00 | 47 | 1014.3 |
| 20260507162025 | 13 | 282 | 3.2 | 4.8 | 0.00 | 0.00 | 0.00 | 48 | 1014.1 |
| 20260507161504 | 13 | 298 | 3.2 | 4.8 | 0.00 | 0.00 | 0.00 | 48 | 1014.1 |
| 20260507161004 | 13 | 43 | 1.6 | 6.4 | 0.00 | 0.00 | 0.00 | 49 | 1014.3 |
| 20260507160504 | 13 | 358 | 3.2 | 9.7 | 0.00 | 0.00 | 0.00 | 49 | 1014.2 |
| 20260507160004 | 13 | 319 | 4.8 | 9.7 | 0.00 | 0.00 | 0.00 | 48 | 1014.3 |
| 20260507155504 | 13 | 338 | 4.8 | 9.7 | 0.00 | 0.00 | 0.00 | 48 | 1014.3 |
| 20260507155025 | 13 | 329 | 4.8 | 9.7 | 0.00 | 0.00 | 0.00 | 48 | 1014.2 |
| 20260507154504 | 13 | 333 | 4.8 | 11.3 | 0.00 | 0.00 | 0.00 | 47 | 1014.1 |
| 20260507154004 | 13 | 329 | 4.8 | 11.3 | 0.00 | 0.00 | 0.00 | 47 | 1014.1 |
| 20260507153504 | 13 | 336 | 4.8 | 9.7 | 0.00 | 0.00 | 0.00 | 45 | 1013.9 |
| 20260507153004 | 14 | 14 | 6.4 | 17.7 | 0.00 | 0.00 | 0.00 | 45 | 1013.6 |
| 20260507152504 | 15 | 356 | 8.0 | 17.7 | 0.00 | 0.00 | 0.00 | 43 | 1013.7 |
| 20260507152004 | 16 | 355 | 8.0 | 17.7 | 0.00 | 0.00 | 0.00 | 41 | 1013.6 |
| 20260507151524 | 15 | 11 | 9.7 | 20.9 | 0.00 | 0.00 | 0.00 | 44 | 1013.6 |
| 20260507151004 | 15 | 24 | 9.7 | 24.1 | 0.00 | 0.00 | 0.00 | 44 | 1013.5 |
| 20260507150504 | 15 | 345 | 9.7 | 24.1 | 0.00 | 0.00 | 0.00 | 43 | 1013.4 |
| 20260507150004 | 14 | 22 | 9.7 | 20.9 | 0.00 | 0.00 | 0.00 | 46 | 1013.4 |
| 20260507145504 | 14 | 10 | 9.7 | 17.7 | 0.00 | 0.00 | 0.00 | 45 | 1013.3 |
| 20260507145004 | 14 | 8 | 9.7 | 17.7 | 0.00 | 0.00 | 0.00 | 47 | 1013.4 |
| 20260507144503 | 13 | 13 | 8.0 | 16.1 | 0.00 | 0.00 | 0.00 | 49 | 1013.2 |
| 20260507144004 | 13 | 36 | 6.4 | 12.9 | 0.00 | 0.00 | 0.00 | 49 | 1013.3 |
| 20260507143504 | 13 | 30 | 3.2 | 12.9 | 0.00 | 0.00 | 0.00 | 52 | 1013.4 |
| 20260507143004 | 13 | 44 | 1.6 | 6.4 | 0.00 | 0.00 | 0.00 | 57 | 1013.2 |
| 20260507142505 | 13 | 43 | 1.6 | 4.8 | 0.00 | 0.00 | 0.00 | 59 | 1013.0 |
| 20260507142004 | 13 | 54 | 3.2 | 9.7 | 0.00 | 0.00 | 0.00 | 58 | 1012.8 |
| 20260507141504 | 13 | 25 | 3.2 | 9.7 | 0.00 | 0.00 | 0.00 | 56 | 1012.9 |
| 20260507141004 | 14 | 1 | 1.6 | 6.4 | 0.00 | 0.00 | 0.00 | 55 | 1012.7 |
| 20260507140503 | 14 | 39 | 0.0 | 3.2 | 0.00 | 0.00 | 0.00 | 54 | 1012.7 |
| 20260507140004 | 14 | 126 | 0.0 | 1.6 | 0.00 | 0.00 | 0.00 | 57 | 1012.6 |
| 20260507135504 | 13 | 0 | 0.0 | 0.0 | 0.00 | 0.00 | 0.00 | 56 | 1012.4 |
| 20260507135004 | 12 | 0 | 0.0 | 1.6 | 0.00 | 0.00 | 0.00 | 61 | 1012.6 |
| 20260507134504 | 12 | 0 | 0.0 | 1.6 | 0.00 | 0.00 | 0.00 | 63 | 1012.4 |
| 20260507134004 | 11 | 73 | 0.0 | 1.6 | 0.00 | 0.00 | 0.00 | 67 | 1012.4 |
| 20260507133504 | 11 | 0 | 0.0 | 1.6 | 0.00 | 0.00 | 0.00 | 68 | 1012.4 |
| 20260507133003 | 10 | 0 | 0.0 | 1.6 | 0.00 | 0.00 | 0.00 | 71 | 1012.1 |
| 20260507132525 | 10 | 89 | 0.0 | 1.6 | 0.00 | 0.00 | 0.00 | 72 | 1012.4 |
| 20260507132004 | 10 | 0 | 0.0 | 0.0 | 0.00 | 0.00 | 0.00 | 71 | 1012.1 |
| 20260507131504 | 10 | 0 | 0.0 | 0.0 | 0.00 | 0.00 | 0.00 | 71 | 1012.2 |
| 20260507131003 | 9 | 0 | 0.0 | 0.0 | 0.00 | 0.00 | 0.00 | 72 | 1012.1 |
| 20260507130503 | 10 | 0 | 0.0 | 1.6 | 0.00 | 0.00 | 0.00 | 72 | 1012.1 |
| 20260507130025 | 10 | 0 | 0.0 | 3.2 | 0.00 | 0.00 | 0.00 | 70 | 1012.2 |
| 20260507125503 | 10 | 98 | 0.0 | 3.2 | 0.00 | 0.00 | 0.00 | 69 | 1011.9 |
| 20260507125004 | 10 | 65 | 1.6 | 6.4 | 0.00 | 0.00 | 0.00 | 66 | 1011.9 |
| 20260507124504 | 10 | 65 | 1.6 | 6.4 | 0.00 | 0.00 | 0.00 | 66 | 1011.8 |
| 20260507124003 | 10 | 50 | 1.6 | 6.4 | 0.00 | 0.00 | 0.00 | 68 | 1011.8 |
| 20260507123503 | 10 | 30 | 0.0 | 3.2 | 0.00 | 0.00 | 0.00 | 71 | 1011.9 |
| 20260507123003 | 10 | 59 | 1.6 | 6.4 | 0.00 | 0.00 | 0.00 | 72 | 1011.8 |
| 20260507122504 | 10 | 52 | 1.6 | 6.4 | 0.00 | 0.00 | 0.00 | 72 | 1011.7 |
| 20260507122004 | 10 | 17 | 1.6 | 4.8 | 0.00 | 0.00 | 0.00 | 71 | 1011.7 |
| 20260507121504 | 10 | 63 | 1.6 | 4.8 | 0.00 | 0.00 | 0.00 | 72 | 1011.6 |
| 20260507121003 | 10 | 63 | 1.6 | 4.8 | 0.00 | 0.00 | 0.00 | 72 | 1011.8 |
| 20260507120504 | 10 | 0 | 0.0 | 6.4 | 0.00 | 0.00 | 0.00 | 70 | 1011.3 |
| 20260507120004 | 10 | 55 | 1.6 | 6.4 | 0.00 | 0.00 | 0.00 | 69 | 1011.1 |
| 20260507115504 | 10 | 302 | 3.2 | 6.4 | 0.00 | 0.00 | 0.00 | 68 | 1011.0 |
| 20260507115004 | 10 | 347 | 1.6 | 6.4 | 0.00 | 0.00 | 0.00 | 71 | 1011.1 |
| 20260507114504 | 10 | 11 | 3.2 | 9.7 | 0.00 | 0.00 | 0.00 | 73 | 1011.1 |
| 20260507114004 | 10 | 61 | 4.8 | 12.9 | 0.00 | 0.00 | 0.00 | 72 | 1010.9 |
| 20260507113524 | 11 | 343 | 8.0 | 16.1 | 0.00 | 0.00 | 0.00 | 69 | 1010.9 |
| 20260507113004 | 11 | 249 | 11.3 | 16.1 | 0.00 | 0.00 | 0.00 | 69 | 1010.9 |
| 20260507112503 | 11 | 261 | 9.7 | 17.7 | 0.00 | 0.00 | 0.00 | 68 | 1010.8 |
| 20260507112025 | 11 | 268 | 8.0 | 17.7 | 0.00 | 0.00 | 0.00 | 66 | 1010.8 |
| 20260507111504 | 11 | 277 | 6.4 | 11.3 | 0.00 | 0.00 | 0.00 | 61 | 1010.8 |
| 20260507111003 | 11 | 265 | 4.8 | 11.3 | 0.00 | 0.00 | 0.00 | 61 | 1010.5 |
| 20260507110503 | 11 | 314 | 3.2 | 9.7 | 0.00 | 0.00 | 0.00 | 61 | 1011.1 |
| 20260507110024 | 11 | 320 | 4.8 | 12.9 | 0.00 | 0.00 | 0.00 | 60 | 1011.1 |
| 20260507105503 | 11 | 263 | 6.4 | 12.9 | 0.00 | 0.00 | 0.00 | 59 | 1011.0 |
| 20260507105004 | 11 | 293 | 6.4 | 12.9 | 0.00 | 0.00 | 0.00 | 59 | 1010.9 |
| 20260507104504 | 11 | 314 | 4.8 | 11.3 | 0.00 | 0.00 | 0.00 | 60 | 1010.9 |
| 20260507104004 | 12 | 343 | 4.8 | 11.3 | 0.00 | 0.00 | 0.00 | 59 | 1010.9 |
| 20260507103504 | 12 | 265 | 4.8 | 11.3 | 0.00 | 0.00 | 0.00 | 58 | 1010.8 |
| 20260507103004 | 12 | 296 | 4.8 | 14.5 | 0.00 | 0.00 | 0.00 | 57 | 1011.1 |
| 20260507102524 | 12 | 279 | 4.8 | 14.5 | 0.00 | 0.00 | 0.00 | 56 | 1010.8 |
| 20260507102003 | 12 | 26 | 3.2 | 9.7 | 0.00 | 0.00 | 0.00 | 57 | 1010.7 |
| 20260507101503 | 12 | 321 | 3.2 | 4.8 | 0.00 | 0.00 | 0.00 | 58 | 1010.4 |
| 20260507101004 | 13 | 196 | 1.6 | 6.4 | 0.00 | 0.00 | 0.00 | 56 | 1010.4 |
| 20260507100504 | 13 | 135 | 4.8 | 14.5 | 0.00 | 0.00 | 0.00 | 53 | 1010.4 |
| 20260507100004 | 12 | 345 | 6.4 | 14.5 | 0.00 | 0.00 | 0.00 | 57 | 1010.8 |
| 20260507095503 | 13 | 250 | 4.8 | 14.5 | 0.00 | 0.00 | 0.00 | 53 | 1010.9 |
| 20260507095004 | 13 | 341 | 3.2 | 14.5 | 0.00 | 0.00 | 0.00 | 49 | 1010.9 |
| 20260507094503 | 13 | 19 | 3.2 | 9.7 | 0.00 | 0.00 | 0.00 | 48 | 1010.9 |
| 20260507094003 | 13 | 52 | 3.2 | 12.9 | 0.00 | 0.00 | 0.00 | 49 | 1010.7 |
| 20260507093503 | 14 | 54 | 4.8 | 17.7 | 0.00 | 0.00 | 0.00 | 47 | 1010.4 |
| 20260507093003 | 14 | 47 | 8.0 | 17.7 | 0.00 | 0.00 | 0.00 | 46 | 1010.2 |
| 20260507092504 | 13 | 32 | 6.4 | 17.7 | 0.00 | 0.00 | 0.00 | 47 | 1010.5 |
| 20260507092004 | 12 | 18 | 3.2 | 14.5 | 0.00 | 0.00 | 0.00 | 49 | 1010.6 |
| 20260507091524 | 11 | 0 | 0.0 | 0.0 | 0.00 | 0.00 | 0.00 | 54 | 1010.5 |
| 20260507091003 | 11 | 0 | 0.0 | 0.0 | 0.00 | 0.00 | 0.00 | 56 | 1010.5 |
| 20260507090504 | 11 | 0 | 0.0 | 0.0 | 0.00 | 0.00 | 0.00 | 55 | 1010.6 |
| 20260507090004 | 12 | 0 | 0.0 | 4.8 | 0.00 | 0.00 | 0.00 | 53 | 1010.2 |
| 20260507085524 | 12 | 0 | 1.6 | 6.4 | 0.00 | 0.00 | 0.00 | 53 | 1010.1 |
| 20260507085024 | 13 | 59 | 1.6 | 6.4 | 0.00 | 0.00 | 0.00 | 51 | 1009.9 |
| 20260507084503 | 14 | 16 | 1.6 | 11.3 | 0.00 | 0.00 | 0.00 | 44 | 1009.8 |
| 20260507084003 | 14 | 101 | 6.4 | 16.1 | 0.00 | 0.00 | 0.00 | 44 | 1009.9 |
| 20260507083503 | 13 | 282 | 8.0 | 16.1 | 0.00 | 0.00 | 0.00 | 45 | 1009.4 |
| 20260507083004 | 13 | 283 | 9.7 | 16.1 | 0.00 | 0.00 | 0.00 | 45 | 1009.0 |
| 20260507082504 | 13 | 275 | 8.0 | 12.9 | 0.00 | 0.00 | 0.00 | 46 | 1009.3 |
| 20260507082004 | 12 | 268 | 6.4 | 12.9 | 0.00 | 0.00 | 0.00 | 48 | 1009.0 |
| 20260507081504 | 12 | 266 | 6.4 | 11.3 | 0.00 | 0.00 | 0.00 | 51 | 1009.0 |
| 20260507081003 | 12 | 262 | 4.8 | 11.3 | 0.00 | 0.00 | 0.00 | 53 | 1009.1 |
| 20260507080503 | 11 | 273 | 4.8 | 9.7 | 0.00 | 0.00 | 0.00 | 55 | 1009.1 |
| 20260507080004 | 11 | 273 | 4.8 | 6.4 | 0.00 | 0.00 | 0.00 | 56 | 1008.9 |
| 20260507075503 | 11 | 275 | 4.8 | 6.4 | 0.00 | 0.00 | 0.00 | 57 | 1009.0 |
| 20260507075003 | 11 | 268 | 4.8 | 6.4 | 0.00 | 0.00 | 0.00 | 58 | 1009.0 |
| 20260507074504 | 10 | 272 | 4.8 | 6.4 | 0.00 | 0.00 | 0.00 | 59 | 1009.3 |
| 20260507074003 | 10 | 264 | 3.2 | 4.8 | 0.00 | 0.00 | 0.00 | 60 | 1009.1 |
| 20260507073503 | 9 | 269 | 3.2 | 4.8 | 0.00 | 0.00 | 0.00 | 60 | 1009.1 |
| 20260507073004 | 9 | 243 | 1.6 | 3.2 | 0.00 | 0.00 | 0.00 | 61 | 1009.3 |
| 20260507072524 | 8 | 168 | 1.6 | 3.2 | 0.00 | 0.00 | 0.00 | 60 | 1009.3 |
| 20260507072004 | 9 | 147 | 0.0 | 1.6 | 0.00 | 0.00 | 0.00 | 60 | 1009.3 |
| 20260507071504 | 9 | 121 | 0.0 | 1.6 | 0.00 | 0.00 | 0.00 | 59 | 1009.0 |
| 20260507071024 | 8 | 142 | 0.0 | 1.6 | 0.00 | 0.00 | 0.00 | 61 | 1008.9 |
| 20260507070503 | 9 | 0 | 1.6 | 1.6 | 0.00 | 0.00 | 0.00 | 59 | 1008.9 |
| 20260507070007 | 9 | 163 | 1.6 | 1.6 | 0.00 | 0.00 | 0.00 | 58 | 1008.9 |
| 20260507065503 | 9 | 158 | 1.6 | 3.2 | 0.00 | 0.00 | 0.00 | 59 | 1008.8 |
| 20260507065003 | 9 | 164 | 1.6 | 3.2 | 0.00 | 0.00 | 0.00 | 59 | 1008.5 |
| 20260507064504 | 9 | 151 | 1.6 | 1.6 | 0.00 | 0.00 | 0.00 | 58 | 1008.8 |
| 20260507064003 | 9 | 131 | 1.6 | 1.6 | 0.00 | 0.00 | 0.00 | 57 | 1008.7 |
| 20260507063524 | 9 | 160 | 1.6 | 1.6 | 0.00 | 0.00 | 0.00 | 57 | 1008.8 |
| 20260507063003 | 9 | 152 | 0.0 | 1.6 | 0.00 | 0.00 | 0.00 | 57 | 1008.9 |
| 20260507062503 | 9 | 0 | 0.0 | 0.0 | 0.00 | 0.00 | 0.00 | 57 | 1008.7 |
| 20260507062003 | 8 | 0 | 0.0 | 1.6 | 0.00 | 0.00 | 0.00 | 57 | 1008.6 |
| 20260507061503 | 8 | 0 | 0.0 | 1.6 | 0.00 | 0.00 | 0.00 | 58 | 1008.8 |
| 20260507061003 | 9 | 106 | 0.0 | 1.6 | 0.00 | 0.00 | 0.00 | 56 | 1008.8 |
| 20260507060503 | 10 | 66 | 0.0 | 3.2 | 0.00 | 0.00 | 0.00 | 56 | 1008.6 |
| 20260507060004 | 10 | 196 | 0.0 | 3.2 | 0.00 | 0.00 | 0.00 | 56 | 1008.8 |
| 20260507055524 | 9 | 274 | 0.0 | 3.2 | 0.00 | 0.00 | 0.00 | 56 | 1008.6 |
| 20260507055003 | 9 | 56 | 1.6 | 3.2 | 0.00 | 0.00 | 0.00 | 56 | 1008.9 |
| 20260507054503 | 8 | 154 | 1.6 | 3.2 | 0.00 | 0.00 | 0.00 | 55 | 1008.8 |
| 20260507054003 | 9 | 126 | 0.0 | 3.2 | 0.00 | 0.00 | 0.00 | 54 | 1008.6 |
| 20260507053503 | 10 | 0 | 1.6 | 3.2 | 0.00 | 0.00 | 0.00 | 53 | 1008.7 |
| 20260507053004 | 10 | 153 | 1.6 | 3.2 | 0.00 | 0.00 | 0.00 | 52 | 1008.8 |
| 20260507052503 | 10 | 148 | 1.6 | 1.6 | 0.00 | 0.00 | 0.00 | 52 | 1008.7 |
| 20260507052003 | 10 | 145 | 1.6 | 1.6 | 0.00 | 0.00 | 0.00 | 53 | 1008.9 |
| 20260507051503 | 10 | 159 | 0.0 | 1.6 | 0.00 | 0.00 | 0.00 | 54 | 1008.7 |
| 20260507051003 | 10 | 135 | 0.0 | 1.6 | 0.00 | 0.00 | 0.00 | 54 | 1008.7 |
| 20260507050503 | 10 | 141 | 0.0 | 1.6 | 0.00 | 0.00 | 0.00 | 52 | 1008.8 |
| 20260507050003 | 10 | 148 | 0.0 | 1.6 | 0.00 | 0.00 | 0.00 | 54 | 1008.7 |
| 20260507045524 | 10 | 0 | 0.0 | 1.6 | 0.00 | 0.00 | 0.00 | 53 | 1008.8 |
| 20260507045003 | 10 | 0 | 0.0 | 1.6 | 0.00 | 0.00 | 0.00 | 51 | 1008.8 |
| 20260507044503 | 11 | 135 | 1.6 | 1.6 | 0.00 | 0.00 | 0.00 | 50 | 1009.0 |
| 20260507044003 | 11 | 152 | 1.6 | 1.6 | 0.00 | 0.00 | 0.00 | 50 | 1009.0 |
| 20260507043503 | 11 | 148 | 1.6 | 1.6 | 0.00 | 0.00 | 0.00 | 49 | 1008.9 |
| 20260507043003 | 11 | 160 | 1.6 | 3.2 | 0.00 | 0.00 | 0.00 | 49 | 1009.1 |
| 20260507042503 | 11 | 157 | 1.6 | 3.2 | 0.00 | 0.00 | 0.00 | 48 | 1009.0 |
| 20260507042003 | 12 | 246 | 1.6 | 3.2 | 0.00 | 0.00 | 0.00 | 48 | 1009.1 |
| 20260507041503 | 12 | 251 | 3.2 | 3.2 | 0.00 | 0.00 | 0.00 | 47 | 1009.0 |
| 20260507041003 | 12 | 247 | 3.2 | 4.8 | 0.00 | 0.00 | 0.00 | 47 | 1009.1 |
| 20260507040503 | 12 | 257 | 3.2 | 4.8 | 0.00 | 0.00 | 0.00 | 46 | 1009.0 |
| 20260507040004 | 13 | 246 | 3.2 | 4.8 | 0.00 | 0.00 | 0.00 | 45 | 1008.9 |
| 20260507035503 | 13 | 248 | 3.2 | 4.8 | 0.00 | 0.00 | 0.00 | 44 | 1009.0 |
| 20260507035003 | 13 | 244 | 3.2 | 4.8 | 0.00 | 0.00 | 0.00 | 43 | 1008.8 |
| 20260507034503 | 14 | 243 | 3.2 | 4.8 | 0.00 | 0.00 | 0.00 | 42 | 1008.8 |
| 20260507034004 | 15 | 248 | 3.2 | 4.8 | 0.00 | 0.00 | 0.00 | 41 | 1008.9 |